Time;durP1;ratioP1;P1;durP2;ratioP2;P2;SDS_P1;SDS_P2;PMS_P1;PMS_P2;Temp;Humidity;BMP_temperature;BMP_pressure;BME280_temperature;BME280_humidity;BME280_pressure;Samples;Min_cycle;Max_cycle;Signal;HPM_P1;HPM_P2
2021/03/04 00:00:27;;;;;;;3.85;3.00;;;8.90;78.00;;;;;;5016635;28;20387;-68
2021/03/04 00:02:52;;;;;;;4.43;3.30;;;9.70;76.00;;;;;;5021710;28;20417;-68
2021/03/04 00:05:18;;;;;;;4.80;3.20;;;9.60;75.80;;;;;;5023514;28;20957;-71
2021/03/04 00:07:44;;;;;;;2.78;2.47;;;10.70;76.10;;;;;;5014638;28;20892;-67
2021/03/04 00:10:13;;;;;;;3.15;2.70;;;9.80;76.30;;;;;;5027052;28;20411;-67
2021/03/04 00:12:39;;;;;;;3.50;2.90;;;9.50;77.80;;;;;;5017797;28;20430;-67
2021/03/04 00:15:07;;;;;;;4.00;3.40;;;10.50;76.30;;;;;;5026349;28;20446;-67
2021/03/04 00:17:33;;;;;;;4.32;2.60;;;9.60;80.50;;;;;;5025802;28;20466;-67
2021/03/04 00:19:59;;;;;;;3.22;2.90;;;9.80;80.00;;;;;;5014330;28;20381;-67
2021/03/04 00:22:24;;;;;;;4.17;3.27;;;9.30;77.80;;;;;;5024503;28;20553;-67
2021/03/04 00:24:50;;;;;;;4.28;3.33;;;9.30;77.40;;;;;;5020185;28;20390;-68
2021/03/04 00:27:15;;;;;;;3.83;3.00;;;9.90;86.70;;;;;;5017716;28;20423;-71
2021/03/04 00:29:41;;;;;;;4.88;3.15;;;8.30;78.10;;;;;;5026393;28;20442;-69
2021/03/04 00:32:07;;;;;;;5.25;3.42;;;9.10;81.40;;;;;;5029489;28;20379;-68
2021/03/04 00:34:33;;;;;;;6.72;3.00;;;9.00;86.00;;;;;;5023001;28;20938;-68
2021/03/04 00:36:59;;;;;;;4.90;3.40;;;9.80;78.50;;;;;;5010245;28;20452;-68
2021/03/04 00:39:24;;;;;;;4.43;3.17;;;9.30;79.30;;;;;;5023902;28;20747;-68
2021/03/04 00:41:50;;;;;;;4.23;3.00;;;9.30;89.30;;;;;;5014066;28;20384;-68
2021/03/04 00:44:16;;;;;;;3.93;2.80;;;9.40;79.70;;;;;;5025997;28;20400;-71
2021/03/04 00:46:41;;;;;;;4.03;3.27;;;9.80;80.50;;;;;;5018408;28;20389;-68
2021/03/04 00:49:07;;;;;;;3.27;2.83;;;9.10;87.20;;;;;;5018749;28;20869;-68
2021/03/04 00:51:32;;;;;;;4.07;3.35;;;9.30;79.20;;;;;;5025370;28;20392;-68
2021/03/04 00:53:58;;;;;;;4.47;2.95;;;10.10;80.00;;;;;;5013690;28;20388;-68
2021/03/04 00:56:24;;;;;;;4.57;3.30;;;9.60;84.20;;;;;;5024072;28;20409;-68
2021/03/04 00:58:49;;;;;;;3.85;2.53;;;9.60;81.20;;;;;;5019866;28;20414;-68
2021/03/04 01:01:16;;;;;;;5.53;3.53;;;9.70;87.20;;;;;;5017809;28;20439;-68
2021/03/04 01:03:42;;;;;;;3.20;2.80;;;9.70;87.70;;;;;;5026163;28;20407;-68
2021/03/04 01:06:07;;;;;;;5.00;2.83;;;9.90;88.20;;;;;;4991048;28;20391;-68
2021/03/04 01:08:33;;;;;;;5.60;3.30;;;9.10;80.90;;;;;;5003731;28;20875;-69
2021/03/04 01:10:59;;;;;;;4.57;3.50;;;9.20;86.80;;;;;;5019898;28;20439;-68
2021/03/04 01:13:24;;;;;;;3.45;2.95;;;9.40;82.00;;;;;;5023592;28;20383;-68
2021/03/04 01:15:51;;;;;;;3.70;2.90;;;9.90;81.60;;;;;;5027884;28;20383;-68
2021/03/04 01:18:17;;;;;;;5.63;3.40;;;10.50;81.20;;;;;;5014033;28;20414;-68
2021/03/04 01:20:42;;;;;;;3.83;3.30;;;9.50;91.10;;;;;;5024945;28;20381;-68
2021/03/04 01:23:08;;;;;;;5.20;3.28;;;9.20;82.30;;;;;;5021922;28;20759;-68
2021/03/04 01:25:34;;;;;;;4.70;3.10;;;9.70;83.10;;;;;;5018150;28;20408;-68
2021/03/04 01:27:59;;;;;;;4.18;3.10;;;9.40;90.80;;;;;;5030305;28;20395;-68
2021/03/04 01:30:29;;;;;;;4.13;3.10;;;9.60;81.60;;;;;;5019469;28;20383;-68
2021/03/04 01:32:55;;;;;;;4.60;2.90;;;9.30;89.30;;;;;;5024038;28;20837;-68
2021/03/04 01:35:21;;;;;;;5.13;3.30;;;11.10;80.90;;;;;;5027230;28;20382;-71
2021/03/04 01:37:47;;;;;;;4.80;3.42;;;9.30;81.20;;;;;;5032788;28;20490;-68
2021/03/04 01:40:16;;;;;;;2.80;2.60;;;9.40;90.10;;;;;;5018001;28;20902;-68
2021/03/04 01:42:41;;;;;;;4.03;3.23;;;9.10;78.60;;;;;;5025081;28;20488;-68
2021/03/04 01:45:08;;;;;;;3.67;2.90;;;9.60;79.90;;;;;;5025671;28;20863;-68
2021/03/04 01:47:35;;;;;;;3.50;3.20;;;9.10;82.70;;;;;;5017742;28;20551;-68
2021/03/04 01:50:03;;;;;;;4.72;2.92;;;9.00;80.80;;;;;;5030048;28;20385;-68
2021/03/04 01:52:29;;;;;;;4.15;3.13;;;9.30;80.40;;;;;;5019612;28;20505;-68
2021/03/04 01:54:55;;;;;;;3.80;2.90;;;9.40;81.00;;;;;;5023747;28;20904;-68
2021/03/04 01:57:21;;;;;;;4.50;3.40;;;9.50;81.80;;;;;;5026915;28;20395;-72
2021/03/04 01:59:47;;;;;;;5.90;3.20;;;10.30;82.60;;;;;;5017120;28;20423;-68
2021/03/04 02:02:14;;;;;;;3.30;2.92;;;9.40;91.00;;;;;;5029433;28;20409;-68
2021/03/04 02:04:40;;;;;;;4.22;2.97;;;9.10;91.00;;;;;;5020925;28;20387;-68
2021/03/04 02:07:37;;;;;;;4.20;2.90;;;9.40;83.90;;;;;;5022011;28;20481;-68
2021/03/04 02:10:32;;;;;;;3.47;3.17;;;8.80;77.20;;;;;;5010509;28;20411;-68
2021/03/04 02:13:44;;;;;;;4.07;3.67;;;8.90;77.80;;;;;;5023967;28;20878;-68
2021/03/04 02:16:16;;;;;;;5.60;3.30;;;8.80;88.10;;;;;;4995878;28;20484;-68
2021/03/04 02:18:50;;;;;;;4.85;3.13;;;9.60;85.10;;;;;;5024440;28;20424;-68
2021/03/04 02:21:51;;;;;;;4.65;3.08;;;9.30;85.40;;;;;;5026084;28;20383;-68
2021/03/04 02:24:29;;;;;;;4.75;3.10;;;8.80;77.50;;;;;;5018033;28;20383;-68
2021/03/04 02:27:08;;;;;;;5.20;3.15;;;9.10;90.20;;;;;;5023398;28;20401;-68
2021/03/04 02:30:05;;;;;;;3.60;3.00;;;8.80;83.80;;;;;;5027832;28;20415;-68
2021/03/04 02:32:32;;;;;;;3.33;2.92;;;8.70;79.20;;;;;;5019228;28;20391;-68
2021/03/04 02:35:08;;;;;;;3.80;3.10;;;9.60;85.90;;;;;;5022462;28;20400;-68
2021/03/04 02:37:38;;;;;;;4.70;3.28;;;8.60;84.90;;;;;;5011903;28;20447;-69
2021/03/04 02:40:04;;;;;;;4.07;3.05;;;8.90;91.30;;;;;;4994000;28;20390;-68
2021/03/04 02:42:32;;;;;;;4.90;3.30;;;8.80;83.60;;;;;;4992901;28;20450;-67
2021/03/04 02:44:58;;;;;;;5.65;3.10;;;8.80;84.70;;;;;;4993381;28;20428;-67
2021/03/04 02:47:24;;;;;;;4.15;3.08;;;9.10;86.40;;;;;;4993614;28;20382;-71
2021/03/04 02:49:50;;;;;;;3.50;2.80;;;8.50;86.50;;;;;;4992983;28;20390;-68
2021/03/04 02:52:17;;;;;;;4.43;3.20;;;9.20;90.40;;;;;;4993624;28;20383;-68
2021/03/04 02:54:45;;;;;;;4.40;3.17;;;9.90;85.40;;;;;;4992735;28;20391;-68
2021/03/04 02:57:12;;;;;;;5.15;3.40;;;9.50;83.40;;;;;;4993178;28;20901;-68
2021/03/04 02:59:42;;;;;;;3.55;3.00;;;9.40;85.10;;;;;;4992739;28;20854;-68
2021/03/04 03:02:09;;;;;;;3.43;3.00;;;8.60;84.00;;;;;;4993371;28;20449;-68
2021/03/04 03:04:38;;;;;;;4.47;3.25;;;9.30;91.80;;;;;;4992513;28;20415;-68
2021/03/04 03:07:05;;;;;;;5.05;3.42;;;8.90;83.90;;;;;;5008361;28;20387;-68
2021/03/04 03:09:32;;;;;;;5.30;3.17;;;9.30;80.90;;;;;;4992461;28;20413;-69
2021/03/04 03:11:58;;;;;;;5.10;3.88;;;10.00;87.50;;;;;;5008245;28;20402;-68
2021/03/04 03:14:24;;;;;;;6.25;3.20;;;10.10;89.10;;;;;;4993202;28;20394;-71
2021/03/04 03:16:50;;;;;;;6.15;3.70;;;9.90;80.50;;;;;;4992365;28;20433;-66
2021/03/04 03:19:15;;;;;;;6.17;3.33;;;9.60;76.00;;;;;;4992759;28;20391;-66
2021/03/04 03:21:41;;;;;;;6.47;4.27;;;10.50;81.70;;;;;;4992272;28;20382;-68
2021/03/04 03:24:07;;;;;;;6.83;4.10;;;11.40;71.70;;;;;;4992931;28;20406;-69
2021/03/04 03:26:33;;;;;;;5.65;3.70;;;9.90;68.40;;;;;;4991913;28;20402;-67
2021/03/04 03:28:59;;;;;;;6.22;4.10;;;10.80;73.20;;;;;;4992479;28;20828;-68
2021/03/04 03:31:28;;;;;;;4.88;3.22;;;10.10;76.80;;;;;;5007682;28;20955;-70
2021/03/04 03:33:55;;;;;;;5.30;3.80;;;9.90;71.70;;;;;;5007735;28;20540;-68
2021/03/04 03:36:25;;;;;;;5.22;3.40;;;10.20;72.80;;;;;;4998204;28;20438;-67
2021/03/04 03:38:52;;;;;;;6.00;4.03;;;9.90;75.00;;;;;;5011680;28;20478;-67
2021/03/04 03:41:19;;;;;;;5.63;3.40;;;10.60;76.50;;;;;;5012276;28;20389;-68
2021/03/04 03:43:47;;;;;;;7.25;3.65;;;10.40;80.60;;;;;;5026440;28;20415;-68
2021/03/04 03:46:14;;;;;;;5.70;3.50;;;10.80;72.10;;;;;;5026650;28;20443;-68
2021/03/04 03:48:40;;;;;;;6.10;3.47;;;10.20;67.60;;;;;;5011075;28;20907;-68
2021/03/04 03:51:08;;;;;;;5.28;3.97;;;11.40;71.80;;;;;;5011710;28;20750;-68
2021/03/04 03:53:35;;;;;;;6.33;3.67;;;11.30;68.60;;;;;;5011192;28;20393;-68
2021/03/04 03:56:01;;;;;;;8.57;4.53;;;10.10;76.70;;;;;;5011829;28;20373;-68
2021/03/04 03:58:28;;;;;;;8.40;4.30;;;10.60;64.50;;;;;;5011897;28;20403;-72
2021/03/04 04:00:55;;;;;;;6.65;4.00;;;10.50;65.80;;;;;;5011286;28;20394;-68
2021/03/04 04:03:22;;;;;;;6.93;4.07;;;11.00;75.90;;;;;;5011777;28;20434;-68
2021/03/04 04:05:48;;;;;;;5.97;4.20;;;10.40;74.10;;;;;;5010851;28;20473;-68
2021/03/04 04:08:14;;;;;;;7.38;3.90;;;11.30;79.80;;;;;;5011679;28;20460;-68
2021/03/04 04:10:40;;;;;;;6.13;4.10;;;10.60;72.80;;;;;;5010784;28;20463;-69
2021/03/04 04:13:06;;;;;;;7.90;4.35;;;10.00;71.90;;;;;;5011633;28;20917;-68
2021/03/04 04:15:32;;;;;;;7.93;3.80;;;10.30;65.90;;;;;;5025928;28;20885;-69
2021/03/04 04:18:00;;;;;;;5.53;4.10;;;9.80;78.70;;;;;;5011515;28;20384;-68
2021/03/04 04:20:26;;;;;;;7.15;4.68;;;10.60;75.80;;;;;;5011178;28;20389;-68
2021/03/04 04:22:53;;;;;;;6.93;5.00;;;10.30;64.30;;;;;;5010268;28;20436;-68
2021/03/04 04:25:21;;;;;;;8.68;4.38;;;10.90;68.60;;;;;;5026473;28;20742;-68
2021/03/04 04:27:51;;;;;;;5.75;3.80;;;11.30;62.60;;;;;;5009952;28;20403;-68
2021/03/04 04:30:18;;;;;;;6.63;4.15;;;10.80;56.60;;;;;;5011336;28;20514;-68
2021/03/04 04:32:44;;;;;;;4.68;4.00;;;10.80;58.80;;;;;;5010127;28;20827;-68
2021/03/04 04:35:11;;;;;;;5.10;3.57;;;11.60;60.00;;;;;;5011286;28;20480;-68
2021/03/04 04:37:36;;;;;;;8.00;4.10;;;11.00;57.80;;;;;;4994408;28;20435;-68
2021/03/04 04:40:03;;;;;;;7.47;4.07;;;11.90;61.70;;;;;;4991641;28;20399;-68
2021/03/04 04:42:29;;;;;;;9.07;4.55;;;10.60;58.90;;;;;;4990850;28;20424;-72
2021/03/04 04:44:55;;;;;;;6.75;4.07;;;10.90;64.80;;;;;;4990980;28;20841;-68
2021/03/04 04:47:20;;;;;;;7.25;3.60;;;11.20;72.70;;;;;;4991338;28;20398;-68
2021/03/04 04:49:46;;;;;;;9.55;4.20;;;10.60;68.40;;;;;;4990623;28;20386;-68
2021/03/04 04:52:12;;;;;;;7.65;4.70;;;11.60;72.50;;;;;;4991073;28;20414;-68
2021/03/04 04:54:37;;;;;;;5.13;4.05;;;10.40;70.30;;;;;;4990533;28;20381;-69
2021/03/04 04:57:03;;;;;;;6.03;3.77;;;11.40;68.30;;;;;;4991153;28;20406;-68
2021/03/04 04:59:29;;;;;;;6.65;3.85;;;9.70;78.40;;;;;;4991286;28;20898;-68
2021/03/04 05:01:54;;;;;;;7.47;3.97;;;10.70;66.40;;;;;;4990951;28;20422;-68
2021/03/04 05:04:20;;;;;;;6.90;4.17;;;10.10;63.60;;;;;;4991616;28;20510;-68
2021/03/04 05:06:45;;;;;;;8.43;4.43;;;10.80;78.20;;;;;;4990872;28;20387;-68
2021/03/04 05:09:11;;;;;;;8.03;4.13;;;10.40;67.00;;;;;;4991703;28;20860;-68
2021/03/04 05:11:37;;;;;;;7.27;4.57;;;10.50;64.80;;;;;;4990652;28;20418;-69
2021/03/04 05:14:03;;;;;;;6.27;3.93;;;10.40;73.70;;;;;;4991739;28;20847;-68
2021/03/04 05:16:28;;;;;;;6.30;4.13;;;10.00;63.40;;;;;;4991672;28;20413;-68
2021/03/04 05:18:54;;;;;;;7.60;4.20;;;10.70;64.10;;;;;;4990602;28;20570;-68
2021/03/04 05:21:20;;;;;;;7.30;4.27;;;11.10;73.70;;;;;;4991589;28;20398;-68
2021/03/04 05:23:45;;;;;;;6.63;3.67;;;11.50;65.00;;;;;;4990590;28;20900;-68
2021/03/04 05:26:11;;;;;;;5.33;3.70;;;10.70;64.50;;;;;;4991464;28;20399;-68
2021/03/04 05:28:36;;;;;;;6.90;4.20;;;10.90;73.50;;;;;;4990469;28;20867;-68
2021/03/04 05:31:02;;;;;;;7.60;4.13;;;11.00;65.50;;;;;;4991514;28;20452;-68
2021/03/04 05:33:28;;;;;;;7.93;4.78;;;9.90;63.80;;;;;;4991393;28;20752;-68
2021/03/04 05:35:53;;;;;;;5.05;3.70;;;10.70;71.50;;;;;;4992496;28;20397;-68
2021/03/04 05:38:19;;;;;;;7.85;4.25;;;11.10;62.70;;;;;;5010686;28;20385;-68
2021/03/04 05:40:44;;;;;;;8.27;4.00;;;11.20;67.90;;;;;;5010283;28;20865;-68
2021/03/04 05:43:10;;;;;;;6.30;4.10;;;10.70;61.60;;;;;;5010776;28;20404;-68
2021/03/04 05:45:39;;;;;;;6.03;4.10;;;10.80;62.00;;;;;;5010433;28;20472;-71
2021/03/04 05:48:08;;;;;;;13.05;4.65;;;10.20;61.90;;;;;;5010799;28;20389;-68
2021/03/04 05:50:44;;;;;;;7.68;4.30;;;10.30;61.00;;;;;;5010587;28;20381;-72
2021/03/04 05:53:14;;;;;;;10.57;4.97;;;10.70;62.80;;;;;;4997755;28;20950;-69
2021/03/04 05:55:43;;;;;;;8.00;4.90;;;11.40;63.00;;;;;;5001652;28;20746;-71
2021/03/04 05:58:10;;;;;;;9.35;4.70;;;8.90;61.60;;;;;;5001701;28;20404;-69
2021/03/04 06:00:36;;;;;;;8.15;4.00;;;10.50;72.50;;;;;;5015360;28;20405;-72
2021/03/04 06:03:05;;;;;;;8.80;4.70;;;10.20;61.90;;;;;;4996717;28;20441;-71
2021/03/04 06:05:30;;;;;;;6.13;4.45;;;10.40;72.30;;;;;;5001256;28;20428;-69
2021/03/04 06:07:56;;;;;;;6.10;3.88;;;10.60;71.60;;;;;;5000464;28;20480;-68
2021/03/04 06:10:22;;;;;;;9.55;4.78;;;10.20;63.00;;;;;;5000917;28;20389;-68
2021/03/04 06:12:48;;;;;;;9.77;4.30;;;10.60;62.90;;;;;;5002114;28;20399;-71
2021/03/04 06:15:13;;;;;;;6.43;4.25;;;10.10;65.70;;;;;;5004618;28;20385;-68
2021/03/04 06:17:39;;;;;;;7.68;4.30;;;10.60;68.00;;;;;;5002021;28;20393;-72
2021/03/04 06:20:08;;;;;;;5.43;3.90;;;10.90;64.10;;;;;;5004497;28;21713;-70
2021/03/04 06:22:45;;;;;;;6.72;4.00;;;9.90;63.20;;;;;;5002001;28;20413;-68
2021/03/04 06:25:12;;;;;;;6.63;3.92;;;10.30;69.60;;;;;;5002474;28;20821;-68
2021/03/04 06:27:41;;;;;;;6.10;3.72;;;9.70;65.00;;;;;;5002117;28;20420;-71
2021/03/04 06:30:15;;;;;;;6.00;4.30;;;11.40;69.70;;;;;;5004229;28;20457;-70
2021/03/04 06:32:53;;;;;;;6.07;4.13;;;10.10;62.10;;;;;;5016053;28;20873;-69
2021/03/04 06:35:20;;;;;;;6.95;4.40;;;10.60;69.50;;;;;;5001803;28;20963;-70
2021/03/04 06:37:46;;;;;;;7.50;4.50;;;11.20;66.30;;;;;;5002274;28;20392;-69
2021/03/04 06:40:27;;;;;;;8.07;4.60;;;10.50;66.30;;;;;;5004256;28;21186;-69
2021/03/04 06:42:53;;;;;;;6.88;4.05;;;11.00;66.00;;;;;;5000077;28;20408;-69
2021/03/04 06:45:25;;;;;;;11.45;4.35;;;10.60;68.20;;;;;;5000606;28;20413;-70
2021/03/04 06:47:50;;;;;;;8.52;4.43;;;10.90;75.50;;;;;;5000542;28;20437;-68
2021/03/04 06:50:24;;;;;;;6.07;3.63;;;10.90;63.70;;;;;;5003885;28;20480;-68
2021/03/04 06:52:49;;;;;;;6.57;4.35;;;10.70;64.90;;;;;;5012447;28;20451;-67
2021/03/04 06:55:16;;;;;;;8.05;4.20;;;11.90;65.50;;;;;;5001308;28;20928;-68
2021/03/04 06:57:56;;;;;;;6.60;3.97;;;11.20;65.30;;;;;;5002766;28;20404;-71
2021/03/04 07:00:22;;;;;;;8.10;4.10;;;10.90;74.60;;;;;;5001982;28;20395;-68
2021/03/04 07:02:58;;;;;;;6.83;4.50;;;12.30;65.10;;;;;;4997350;28;20417;-67
2021/03/04 07:05:25;;;;;;;6.40;4.20;;;11.40;65.50;;;;;;5002722;28;20401;-69
2021/03/04 07:07:53;;;;;;;6.85;3.58;;;10.80;64.60;;;;;;5002592;28;20388;-71
2021/03/04 07:10:20;;;;;;;7.47;3.80;;;10.70;66.90;;;;;;5003013;28;20397;-68
2021/03/04 07:12:47;;;;;;;6.75;4.20;;;11.40;64.10;;;;;;4999385;28;20551;-70
2021/03/04 07:15:18;;;;;;;11.80;5.05;;;10.90;63.70;;;;;;5004808;28;20755;-69
2021/03/04 07:17:47;;;;;;;6.85;4.53;;;11.30;64.60;;;;;;5001637;28;20400;-67
2021/03/04 07:20:18;;;;;;;8.80;5.15;;;11.10;64.20;;;;;;5001491;28;20400;-69
2021/03/04 07:22:45;;;;;;;6.80;4.73;;;11.80;65.50;;;;;;4995437;28;20429;-71
2021/03/04 07:25:13;;;;;;;9.97;4.50;;;11.60;75.50;;;;;;4990565;28;20527;-68
2021/03/04 07:27:41;;;;;;;8.87;4.70;;;11.10;63.80;;;;;;4991752;28;20446;-71
2021/03/04 07:30:11;;;;;;;6.15;3.75;;;11.00;64.20;;;;;;4998531;28;20397;-69
2021/03/04 07:32:38;;;;;;;6.00;3.90;;;11.30;67.60;;;;;;4995940;28;20400;-69
2021/03/04 07:35:09;;;;;;;7.28;4.15;;;11.40;74.00;;;;;;4997294;28;20467;-68
2021/03/04 07:37:38;;;;;;;7.15;4.35;;;11.20;70.50;;;;;;4996480;28;20428;-69
2021/03/04 07:40:04;;;;;;;10.80;4.30;;;10.90;63.90;;;;;;4998883;28;20387;-68
2021/03/04 07:42:30;;;;;;;6.70;4.05;;;11.50;64.80;;;;;;4994689;28;20419;-68
2021/03/04 07:44:56;;;;;;;9.53;4.37;;;11.80;75.30;;;;;;4996216;28;20404;-68
2021/03/04 07:47:28;;;;;;;5.40;3.85;;;11.40;63.70;;;;;;4995769;28;20420;-68
2021/03/04 07:49:57;;;;;;;7.70;4.60;;;12.10;64.30;;;;;;4997025;28;20476;-68
2021/03/04 07:52:26;;;;;;;10.00;4.43;;;11.70;63.50;;;;;;4994084;28;20397;-70
2021/03/04 07:55:06;;;;;;;6.22;3.85;;;11.80;64.50;;;;;;4997773;28;20764;-70
2021/03/04 07:57:46;;;;;;;8.90;3.77;;;11.90;74.10;;;;;;4999418;28;20488;-69
2021/03/04 08:00:13;;;;;;;7.38;3.90;;;11.70;58.40;;;;;;4999235;28;20400;-71
2021/03/04 08:02:42;;;;;;;6.00;3.70;;;11.90;65.90;;;;;;4995344;28;20520;-70
2021/03/04 08:05:13;;;;;;;7.63;4.07;;;11.70;71.90;;;;;;4998866;28;20391;-69
2021/03/04 08:07:41;;;;;;;4.43;3.70;;;11.90;57.90;;;;;;4999399;28;20735;-70
2021/03/04 08:10:19;;;;;;;9.18;4.05;;;12.40;64.20;;;;;;4994865;28;20439;-68
2021/03/04 08:12:46;;;;;;;7.63;3.83;;;12.10;65.80;;;;;;4994239;28;20917;-70
2021/03/04 08:15:12;;;;;;;5.25;3.63;;;12.60;63.10;;;;;;4998246;28;20397;-72
2021/03/04 08:17:39;;;;;;;7.18;3.72;;;12.10;60.60;;;;;;4995491;28;20416;-71
2021/03/04 08:20:12;;;;;;;8.70;4.10;;;12.10;64.00;;;;;;4997294;28;20417;-68
2021/03/04 08:22:49;;;;;;;7.65;3.50;;;12.00;68.30;;;;;;4996561;28;20423;-69
2021/03/04 08:25:20;;;;;;;7.07;3.90;;;12.10;58.30;;;;;;4998081;28;20396;-71
2021/03/04 08:27:47;;;;;;;6.53;3.60;;;11.80;62.30;;;;;;4996291;28;20916;-69
2021/03/04 08:30:14;;;;;;;7.77;4.30;;;13.10;63.00;;;;;;4997534;28;20393;-70
2021/03/04 08:32:43;;;;;;;9.13;4.22;;;11.80;61.00;;;;;;4996723;28;20397;-71
2021/03/04 08:35:22;;;;;;;8.02;4.13;;;11.80;67.20;;;;;;4993460;28;20393;-68
2021/03/04 08:38:01;;;;;;;7.47;3.67;;;11.80;73.10;;;;;;4995122;28;20407;-68
2021/03/04 08:40:28;;;;;;;7.47;3.97;;;11.70;59.30;;;;;;4996184;28;20397;-68
2021/03/04 08:42:53;;;;;;;7.32;4.10;;;11.40;62.90;;;;;;5011769;28;20413;-68
2021/03/04 08:45:30;;;;;;;6.63;3.47;;;11.70;64.20;;;;;;4998455;28;20401;-68
2021/03/04 08:47:56;;;;;;;9.52;4.00;;;12.10;64.70;;;;;;4993646;28;20805;-68
2021/03/04 08:50:32;;;;;;;6.72;4.50;;;11.70;72.00;;;;;;4999804;28;20385;-70
2021/03/04 08:52:59;;;;;;;7.60;4.25;;;11.60;74.50;;;;;;4994532;28;20388;-68
2021/03/04 08:55:25;;;;;;;8.77;3.08;;;11.60;64.10;;;;;;4995774;28;20528;-70
2021/03/04 08:57:51;;;;;;;7.40;4.20;;;11.60;72.80;;;;;;4997363;28;20404;-69
2021/03/04 09:00:17;;;;;;;6.60;3.50;;;11.80;73.60;;;;;;5000258;28;20509;-68
2021/03/04 09:02:45;;;;;;;5.55;3.35;;;11.60;62.40;;;;;;4996490;28;20436;-71
2021/03/04 09:05:14;;;;;;;7.25;3.75;;;11.40;63.80;;;;;;4998873;28;20416;-68
2021/03/04 09:07:43;;;;;;;6.38;3.60;;;11.80;66.30;;;;;;5002963;28;20395;-70
2021/03/04 09:10:09;;;;;;;7.85;3.50;;;12.40;71.50;;;;;;5000785;28;20480;-68
2021/03/04 09:12:42;;;;;;;5.45;3.60;;;12.20;63.60;;;;;;4997799;28;20404;-68
2021/03/04 09:15:09;;;;;;;9.32;3.97;;;11.90;62.90;;;;;;5000977;28;20400;-69
2021/03/04 09:17:39;;;;;;;6.10;3.23;;;12.30;62.90;;;;;;5001727;28;20545;-68
2021/03/04 09:20:06;;;;;;;6.65;3.60;;;12.40;63.10;;;;;;4997960;28;21249;-68
2021/03/04 09:22:35;;;;;;;6.65;3.75;;;12.50;62.00;;;;;;4994860;28;20967;-69
2021/03/04 09:25:00;;;;;;;6.57;3.85;;;12.30;72.20;;;;;;4999272;28;20397;-68
2021/03/04 09:27:26;;;;;;;5.45;3.47;;;12.30;65.90;;;;;;4999285;28;20412;-68
2021/03/04 09:29:52;;;;;;;5.10;3.63;;;12.50;71.20;;;;;;4999854;28;20440;-69
2021/03/04 09:32:28;;;;;;;9.47;3.77;;;13.30;61.20;;;;;;4998047;28;20429;-69
2021/03/04 09:34:54;;;;;;;7.40;3.70;;;13.10;61.50;;;;;;5000642;28;20408;-67
2021/03/04 09:37:30;;;;;;;6.20;3.80;;;12.40;61.00;;;;;;5005162;28;20420;-68
2021/03/04 09:39:56;;;;;;;5.93;3.40;;;13.10;57.60;;;;;;4992776;28;20403;-68
2021/03/04 09:42:35;;;;;;;6.45;3.78;;;13.20;61.30;;;;;;4995654;28;20424;-67
2021/03/04 09:45:04;;;;;;;9.00;4.70;;;12.60;65.40;;;;;;4995966;28;20478;-70
2021/03/04 09:47:32;;;;;;;5.75;4.57;;;12.90;61.20;;;;;;4999870;28;20403;-69
2021/03/04 09:49:59;;;;;;;6.35;3.75;;;12.60;60.60;;;;;;5000987;28;20403;-68
2021/03/04 09:52:31;;;;;;;9.15;4.40;;;12.80;63.90;;;;;;5005141;28;20433;-70
2021/03/04 09:55:09;;;;;;;7.33;3.87;;;12.60;63.80;;;;;;4997387;28;20397;-68
2021/03/04 09:57:40;;;;;;;9.07;3.92;;;12.50;61.90;;;;;;5015165;28;20431;-68
2021/03/04 10:00:16;;;;;;;6.83;3.80;;;12.80;62.30;;;;;;5015093;28;20400;-69
2021/03/04 10:02:44;;;;;;;4.90;3.47;;;13.10;59.70;;;;;;4997281;28;20502;-69
2021/03/04 10:05:30;;;;;;;7.60;3.70;;;13.40;60.60;;;;;;4997569;28;20401;-71
2021/03/04 10:08:01;;;;;;;8.50;3.80;;;13.00;59.50;;;;;;5011792;28;20417;-69
2021/03/04 10:10:30;;;;;;;5.95;3.45;;;13.00;65.70;;;;;;5014281;28;20406;-70
2021/03/04 10:12:57;;;;;;;6.22;3.70;;;13.20;64.60;;;;;;4995125;28;20864;-68
2021/03/04 10:15:27;;;;;;;4.60;3.03;;;13.20;59.20;;;;;;4997455;28;20398;-70
2021/03/04 10:17:53;;;;;;;8.60;3.35;;;14.70;59.70;;;;;;5000367;28;20401;-70
2021/03/04 10:20:19;;;;;;;5.20;3.60;;;13.00;58.80;;;;;;5000369;28;20889;-69
2021/03/04 10:22:45;;;;;;;6.13;3.63;;;13.40;58.80;;;;;;4995559;28;20450;-70
2021/03/04 10:25:11;;;;;;;7.50;3.03;;;13.00;68.30;;;;;;4999968;28;20464;-69
2021/03/04 10:27:38;;;;;;;4.72;3.20;;;13.90;59.10;;;;;;5000802;28;20407;-70
2021/03/04 10:30:14;;;;;;;4.38;3.30;;;13.90;58.80;;;;;;4996445;28;20424;-68
2021/03/04 10:32:40;;;;;;;7.03;3.53;;;13.30;57.50;;;;;;5000432;28;21081;-67
2021/03/04 10:35:12;;;;;;;8.38;3.60;;;13.90;58.00;;;;;;5014870;28;20472;-70
2021/03/04 10:37:41;;;;;;;6.75;3.80;;;13.30;60.50;;;;;;4999893;28;20389;-67
2021/03/04 10:40:09;;;;;;;7.05;3.30;;;13.70;58.20;;;;;;4997935;28;20387;-69
2021/03/04 10:42:35;;;;;;;8.35;3.30;;;13.90;58.20;;;;;;4999292;28;20416;-70
2021/03/04 10:45:03;;;;;;;7.60;3.08;;;13.70;59.60;;;;;;4999501;28;20393;-68
2021/03/04 10:47:29;;;;;;;6.15;3.80;;;14.40;59.70;;;;;;4998135;28;20793;-68
2021/03/04 10:49:55;;;;;;;4.63;3.10;;;15.20;60.70;;;;;;5000325;28;20530;-69
2021/03/04 10:52:22;;;;;;;5.85;3.20;;;13.60;59.30;;;;;;4999705;28;20397;-69
2021/03/04 10:54:49;;;;;;;6.28;3.80;;;14.10;59.10;;;;;;4997645;28;20393;-71
2021/03/04 10:57:17;;;;;;;7.40;3.85;;;14.30;60.50;;;;;;4997861;28;20416;-69
2021/03/04 10:59:43;;;;;;;9.10;4.38;;;14.70;60.50;;;;;;4997884;28;20404;-68
2021/03/04 11:02:09;;;;;;;5.95;3.40;;;14.40;59.90;;;;;;4994605;28;20392;-68
2021/03/04 11:04:34;;;;;;;9.88;3.60;;;14.80;60.70;;;;;;4999743;28;20429;-69
2021/03/04 11:07:00;;;;;;;8.93;4.05;;;14.40;69.90;;;;;;4998820;28;20911;-71
2021/03/04 11:09:26;;;;;;;8.00;3.90;;;14.40;62.20;;;;;;4999832;28;20389;-69
2021/03/04 11:11:51;;;;;;;6.57;3.63;;;14.30;65.40;;;;;;4997774;28;21240;-71
2021/03/04 11:14:17;;;;;;;7.50;3.95;;;14.90;67.00;;;;;;5015398;28;20397;-69
2021/03/04 11:16:43;;;;;;;5.28;3.15;;;14.80;60.50;;;;;;4997707;28;20401;-71
2021/03/04 11:19:10;;;;;;;11.45;3.90;;;14.40;59.90;;;;;;4997870;28;20631;-69
2021/03/04 11:21:37;;;;;;;7.47;3.50;;;14.90;67.40;;;;;;4998999;28;20424;-70
2021/03/04 11:24:05;;;;;;;6.57;3.80;;;14.80;70.60;;;;;;4996246;28;20541;-69
2021/03/04 11:26:31;;;;;;;5.93;3.60;;;15.20;70.10;;;;;;4999981;28;20497;-69
2021/03/04 11:28:57;;;;;;;8.85;3.40;;;15.20;59.50;;;;;;4998493;28;20801;-69
2021/03/04 11:31:22;;;;;;;6.13;3.57;;;15.30;69.10;;;;;;4999188;28;20389;-72
2021/03/04 11:33:48;;;;;;;5.87;3.00;;;15.50;58.60;;;;;;5012468;28;20467;-72
2021/03/04 11:36:14;;;;;;;6.63;3.73;;;16.00;57.70;;;;;;4999873;28;20447;-69
2021/03/04 11:38:40;;;;;;;5.43;3.30;;;16.30;66.60;;;;;;4996991;28;20445;-70
2021/03/04 11:41:06;;;;;;;7.93;3.33;;;16.30;57.20;;;;;;4998822;28;20423;-68
2021/03/04 11:43:32;;;;;;;8.02;3.25;;;16.30;54.00;;;;;;4998024;28;20458;-69
2021/03/04 11:45:57;;;;;;;6.27;3.70;;;16.90;64.70;;;;;;5012133;28;20494;-69
2021/03/04 11:48:23;;;;;;;9.07;4.40;;;16.90;54.80;;;;;;4999690;28;20921;-69
2021/03/04 11:50:50;;;;;;;6.88;3.80;;;16.40;56.40;;;;;;4999496;28;20388;-71
2021/03/04 11:53:16;;;;;;;6.20;3.90;;;16.30;65.60;;;;;;4995844;28;20389;-70
2021/03/04 11:55:42;;;;;;;7.03;3.90;;;15.40;58.00;;;;;;4998457;28;20873;-71
2021/03/04 11:58:08;;;;;;;6.18;3.92;;;15.70;58.10;;;;;;5000135;28;20400;-70
2021/03/04 12:00:34;;;;;;;7.50;4.18;;;14.80;58.80;;;;;;4997332;28;20779;-69
2021/03/04 12:02:59;;;;;;;6.95;3.88;;;14.80;68.50;;;;;;4996242;28;20777;-70
2021/03/04 12:05:25;;;;;;;10.07;4.00;;;14.60;60.20;;;;;;5014653;28;20413;-69
2021/03/04 12:07:51;;;;;;;8.05;3.55;;;14.80;62.80;;;;;;4996025;28;20935;-71
2021/03/04 12:10:17;;;;;;;7.70;3.65;;;14.40;66.50;;;;;;5000386;28;20446;-70
2021/03/04 12:12:42;;;;;;;9.85;4.00;;;14.40;61.00;;;;;;4996801;28;20385;-70
2021/03/04 12:15:09;;;;;;;5.45;3.53;;;14.10;63.40;;;;;;5010011;28;21020;-69
2021/03/04 12:17:34;;;;;;;9.30;3.25;;;14.20;66.50;;;;;;4997489;28;20381;-70
2021/03/04 12:20:01;;;;;;;7.10;3.40;;;15.00;61.60;;;;;;5003666;28;20924;-68
2021/03/04 12:22:26;;;;;;;6.28;3.55;;;14.60;59.50;;;;;;4994564;28;20479;-71
2021/03/04 12:24:52;;;;;;;6.38;3.70;;;14.70;62.90;;;;;;5001930;28;20990;-71
2021/03/04 12:27:18;;;;;;;5.85;2.97;;;14.50;60.00;;;;;;4998034;28;20548;-69
2021/03/04 12:29:43;;;;;;;4.63;2.77;;;14.40;59.90;;;;;;4996983;28;20483;-69
2021/03/04 12:32:09;;;;;;;5.93;3.43;;;14.00;68.20;;;;;;4996323;28;20579;-70
2021/03/04 12:34:35;;;;;;;8.57;3.37;;;14.10;58.50;;;;;;4998087;28;20392;-68
2021/03/04 12:37:01;;;;;;;9.20;3.60;;;14.20;59.20;;;;;;4994698;28;20389;-71
2021/03/04 12:39:26;;;;;;;9.17;3.50;;;13.90;68.70;;;;;;4998936;28;20400;-70
2021/03/04 12:41:52;;;;;;;5.77;3.97;;;14.70;59.30;;;;;;4996222;28;20821;-71
2021/03/04 12:44:18;;;;;;;7.60;3.80;;;13.90;58.30;;;;;;4996138;28;20512;-70
2021/03/04 12:46:44;;;;;;;5.23;3.20;;;13.70;68.40;;;;;;4998422;28;20393;-69
2021/03/04 12:49:09;;;;;;;7.20;3.93;;;14.10;58.80;;;;;;4996904;28;20583;-68
2021/03/04 12:51:35;;;;;;;4.90;3.60;;;14.20;58.60;;;;;;4995826;28;20876;-72
2021/03/04 12:54:01;;;;;;;5.97;3.75;;;14.30;68.80;;;;;;4995005;28;21214;-70